Time;durP1;ratioP1;P1;durP2;ratioP2;P2;SDS_P1;SDS_P2;PMS_P1;PMS_P2;Temp;Humidity;BMP_temperature;BMP_pressure;BME280_temperature;BME280_humidity;BME280_pressure;Samples;Min_cycle;Max_cycle;Signal;HPM_P1;HPM_P2
2023/12/24 00:00:32;;;;;;;6.80;5.10;;;;;;;9.26;86.25;100501.16;5055036;28;20264;-74
2023/12/24 00:02:58;;;;;;;5.53;5.00;;;;;;;9.29;85.73;100492.88;5055010;28;20206;-74
2023/12/24 00:05:27;;;;;;;5.93;4.93;;;;;;;9.28;85.95;100494.69;5055192;28;20615;-74
2023/12/24 00:07:53;;;;;;;5.37;4.87;;;;;;;9.28;85.95;100492.03;5055429;28;20183;-74
2023/12/24 00:10:20;;;;;;;7.63;6.00;;;;;;;9.35;85.40;100484.25;5054782;28;20294;-70
2023/12/24 00:12:46;;;;;;;11.27;5.37;;;;;;;9.39;85.46;100483.81;5054784;28;20603;-73
2023/12/24 00:15:14;;;;;;;6.00;5.40;;;;;;;9.39;85.16;100486.47;5054759;28;20594;-73
2023/12/24 00:17:41;;;;;;;9.23;5.13;;;;;;;9.38;85.37;100473.28;5054661;28;20225;-73
2023/12/24 00:20:08;;;;;;;7.27;5.27;;;;;;;9.40;85.22;100466.81;5054901;28;20253;-73
2023/12/24 00:22:35;;;;;;;13.27;4.73;;;;;;;9.34;85.37;100471.91;5054606;28;20199;-73
2023/12/24 00:25:02;;;;;;;6.37;4.87;;;;;;;9.40;84.82;100472.16;5053977;28;20547;-73
2023/12/24 00:27:28;;;;;;;7.27;4.60;;;;;;;9.45;84.20;100469.03;5054749;28;20652;-73
2023/12/24 00:29:55;;;;;;;7.97;4.50;;;;;;;9.46;84.54;100471.53;5054390;28;20214;-73
2023/12/24 00:32:21;;;;;;;7.20;5.10;;;;;;;9.52;84.47;100475.44;5054424;28;20191;-73
2023/12/24 00:34:48;;;;;;;5.20;4.83;;;;;;;9.53;84.12;100464.63;5053858;28;20233;-73
2023/12/24 00:37:14;;;;;;;6.40;4.63;;;;;;;9.53;84.19;100467.28;5054810;28;20211;-73
2023/12/24 00:39:41;;;;;;;4.33;4.13;;;;;;;9.58;84.10;100477.50;5054746;28;20215;-73
2023/12/24 00:42:07;;;;;;;4.77;4.37;;;;;;;9.58;83.63;100472.19;5054517;28;20188;-73
2023/12/24 00:44:33;;;;;;;8.77;4.90;;;;;;;9.60;84.11;100476.34;5054722;28;20191;-73
2023/12/24 00:47:00;;;;;;;6.33;4.37;;;;;;;9.63;83.53;100469.91;5054143;28;20187;-73
2023/12/24 00:49:28;;;;;;;6.40;4.77;;;;;;;9.64;83.80;100467.06;5054311;28;20206;-73
2023/12/24 00:51:56;;;;;;;4.37;3.90;;;;;;;9.63;83.77;100473.38;5054039;28;20574;-73
2023/12/24 00:54:23;;;;;;;11.87;3.93;;;;;;;9.66;83.49;100480.25;5052774;28;20187;-74
2023/12/24 00:56:49;;;;;;;4.93;4.23;;;;;;;9.64;83.77;100483.06;5052596;28;20269;-73
2023/12/24 00:59:16;;;;;;;9.30;4.40;;;;;;;9.61;84.23;100475.38;5052586;28;20214;-73
2023/12/24 01:01:42;;;;;;;4.53;4.43;;;;;;;9.71;83.59;100475.31;5054109;28;20191;-73
2023/12/24 01:04:09;;;;;;;7.13;4.27;;;;;;;9.72;83.46;100468.16;5052804;28;20190;-73
2023/12/24 01:06:35;;;;;;;8.97;3.83;;;;;;;9.69;84.09;100479.09;5052517;28;20207;-74
2023/12/24 01:09:02;;;;;;;6.40;4.37;;;;;;;9.68;84.31;100475.59;5052418;28;20218;-73
2023/12/24 01:11:28;;;;;;;9.70;4.67;;;;;;;9.64;84.61;100468.88;5052419;28;20199;-73
2023/12/24 01:13:56;;;;;;;4.80;4.43;;;;;;;9.68;84.29;100462.25;5052604;28;20191;-73
2023/12/24 01:16:23;;;;;;;4.80;4.40;;;;;;;9.67;84.63;100451.75;5052584;28;20199;-73
2023/12/24 01:18:51;;;;;;;5.10;4.90;;;;;;;9.62;84.70;100465.53;5053539;28;20215;-72
2023/12/24 01:21:18;;;;;;;6.07;4.70;;;;;;;9.68;84.66;100456.06;5053526;28;20659;-73
2023/12/24 01:23:44;;;;;;;5.27;5.07;;;;;;;9.68;84.35;100453.41;5053486;28;20704;-73
2023/12/24 01:26:11;;;;;;;5.20;4.70;;;;;;;9.73;84.36;100451.97;5053433;28;20191;-73
2023/12/24 01:28:37;;;;;;;5.93;5.03;;;;;;;9.73;84.27;100451.97;5052167;28;20191;-73
2023/12/24 01:31:04;;;;;;;4.70;4.47;;;;;;;9.69;84.66;100445.25;5053398;28;20187;-73
2023/12/24 01:33:30;;;;;;;5.47;4.97;;;;;;;9.75;84.57;100438.47;5053674;28;20546;-73
2023/12/24 01:35:57;;;;;;;4.47;4.23;;;;;;;9.74;83.94;100431.44;5053296;28;20194;-73
2023/12/24 01:38:23;;;;;;;10.90;4.40;;;;;;;9.81;83.59;100416.47;5053213;28;20207;-73
2023/12/24 01:40:50;;;;;;;9.20;4.97;;;;;;;9.80;83.31;100417.50;5053167;28;20229;-73
2023/12/24 01:43:17;;;;;;;4.87;3.70;;;;;;;9.80;83.22;100414.81;5051928;28;20195;-73
2023/12/24 01:45:43;;;;;;;4.60;4.33;;;;;;;9.79;82.62;100410.47;5053128;28;20268;-73
2023/12/24 01:48:14;;;;;;;3.53;3.33;;;;;;;9.84;81.57;100406.34;5051142;28;20635;-73
2023/12/24 01:50:42;;;;;;;2.97;2.87;;;;;;;9.89;81.52;100412.03;5053099;28;20202;-73
2023/12/24 01:53:08;;;;;;;3.23;3.20;;;;;;;9.92;80.69;100419.78;5053111;28;20724;-73
2023/12/24 01:55:35;;;;;;;3.47;3.27;;;;;;;9.97;80.31;100424.66;5053363;28;20320;-73
2023/12/24 01:58:03;;;;;;;4.73;3.17;;;;;;;9.96;80.86;100429.16;5051730;28;20221;-73
2023/12/24 02:00:30;;;;;;;4.77;3.23;;;;;;;9.92;80.83;100414.44;5051666;28;20214;-73
2023/12/24 02:02:58;;;;;;;3.63;3.43;;;;;;;9.94;81.16;100412.41;5051765;28;20776;-74
2023/12/24 02:05:26;;;;;;;3.90;3.60;;;;;;;10.01;81.48;100421.47;5051698;28;20195;-73
2023/12/24 02:07:55;;;;;;;4.17;3.87;;;;;;;9.95;82.08;100406.09;5051708;28;20195;-73
2023/12/24 02:10:22;;;;;;;8.57;4.97;;;;;;;9.98;82.39;100410.28;5053457;28;20287;-73
2023/12/24 02:12:50;;;;;;;5.60;3.30;;;;;;;10.01;82.62;100405.47;5052247;28;20252;-73
2023/12/24 02:15:17;;;;;;;7.00;4.53;;;;;;;10.01;82.78;100396.63;5052879;28;20198;-73
2023/12/24 02:17:43;;;;;;;8.53;3.63;;;;;;;10.02;82.85;100380.44;5052686;28;20206;-73
2023/12/24 02:20:10;;;;;;;3.63;3.33;;;;;;;9.99;83.04;100393.28;5052820;28;20226;-73
2023/12/24 02:22:37;;;;;;;9.13;3.83;;;;;;;9.97;83.23;100376.56;5051500;28;20655;-73
2023/12/24 02:25:05;;;;;;;5.40;3.73;;;;;;;10.02;83.22;100384.94;5051750;28;20195;-73
2023/12/24 02:28:05;;;;;;;7.47;3.90;;;;;;;10.04;82.81;100386.47;5051482;28;20663;-73
2023/12/24 02:30:41;;;;;;;5.07;3.73;;;;;;;9.97;82.51;100385.41;5052724;28;20211;-73
2023/12/24 02:33:10;;;;;;;4.13;3.73;;;;;;;9.97;82.81;100384.59;5052773;28;20632;-73
2023/12/24 02:35:38;;;;;;;10.53;3.43;;;;;;;9.90;82.97;100384.34;5052943;28;20198;-73
2023/12/24 02:38:05;;;;;;;7.33;2.80;;;;;;;9.87;83.58;100373.16;5051358;28;20235;-73
2023/12/24 02:40:32;;;;;;;7.40;3.07;;;;;;;9.92;82.68;100374.38;5051304;28;20218;-72
2023/12/24 02:42:59;;;;;;;2.50;2.30;;;;;;;9.91;82.78;100364.69;5052647;28;20194;-72
2023/12/24 02:45:25;;;;;;;2.87;2.73;;;;;;;9.86;83.21;100358.97;5052573;28;20223;-73
2023/12/24 02:47:52;;;;;;;3.37;3.00;;;;;;;9.76;84.29;100360.06;5053169;28;20180;-73
2023/12/24 02:50:19;;;;;;;6.63;2.87;;;;;;;9.75;85.19;100353.88;5052578;28;20209;-73
2023/12/24 02:52:46;;;;;;;6.17;3.17;;;;;;;9.70;85.28;100356.19;5052585;28;20183;-73
2023/12/24 02:55:12;;;;;;;5.33;2.67;;;;;;;9.58;86.39;100357.41;5053067;28;20241;-73
2023/12/24 02:57:39;;;;;;;3.03;2.50;;;;;;;9.49;86.95;100363.66;5051371;28;20211;-73
2023/12/24 03:00:08;;;;;;;4.93;2.60;;;;;;;9.47;87.47;100357.63;5054818;28;20215;-73
2023/12/24 03:02:35;;;;;;;4.57;3.10;;;;;;;9.38;88.93;100361.22;5054882;28;20210;-73
2023/12/24 03:05:02;;;;;;;3.17;2.93;;;;;;;9.37;88.64;100351.56;5054845;28;20187;-74
2023/12/24 03:07:28;;;;;;;2.63;2.63;;;;;;;9.26;89.70;100357.94;5056348;28;20192;-74
2023/12/24 03:09:55;;;;;;;2.30;2.20;;;;;;;9.16;90.59;100352.69;5056176;28;20375;-73
2023/12/24 03:12:21;;;;;;;3.07;2.90;;;;;;;9.15;91.28;100348.38;5054971;28;20191;-74
2023/12/24 03:14:48;;;;;;;7.93;2.13;;;;;;;9.14;91.44;100349.34;5054658;28;20203;-74
2023/12/24 03:17:14;;;;;;;8.90;3.07;;;;;;;9.05;92.31;100352.06;5056113;28;20191;-74
2023/12/24 03:19:41;;;;;;;2.70;2.53;;;;;;;9.10;93.09;100349.78;5055771;28;20637;-74
2023/12/24 03:22:08;;;;;;;8.57;3.20;;;;;;;9.07;93.33;100337.63;5056327;28;20199;-74
2023/12/24 03:24:34;;;;;;;2.93;2.87;;;;;;;9.11;93.97;100333.66;5054712;28;20214;-75
2023/12/24 03:27:01;;;;;;;2.70;2.50;;;;;;;9.13;94.03;100339.66;5055677;28;20686;-75
2023/12/24 03:29:27;;;;;;;2.50;2.40;;;;;;;9.09;94.77;100321.44;5054307;28;20710;-76
2023/12/24 03:31:54;;;;;;;7.20;2.83;;;;;;;9.10;95.03;100320.47;5054601;28;20195;-76
2023/12/24 03:34:21;;;;;;;9.37;3.00;;;;;;;9.07;95.53;100318.09;5056084;28;20274;-76
2023/12/24 03:36:47;;;;;;;2.60;2.37;;;;;;;9.04;95.84;100305.91;5055818;28;20194;-76
2023/12/24 03:39:14;;;;;;;5.03;2.53;;;;;;;9.04;96.32;100319.22;5054069;28;20218;-76
2023/12/24 03:41:42;;;;;;;5.30;2.60;;;;;;;9.03;96.48;100314.91;5054410;28;20195;-76
2023/12/24 03:44:08;;;;;;;3.23;2.93;;;;;;;9.01;97.14;100316.88;5055379;28;20202;-76
2023/12/24 03:46:34;;;;;;;3.10;2.97;;;;;;;9.06;97.25;100316.41;5055609;28;20179;-78
2023/12/24 03:49:01;;;;;;;3.00;2.90;;;;;;;9.04;97.41;100307.72;5054214;28;20219;-76
2023/12/24 03:51:27;;;;;;;2.93;2.93;;;;;;;8.98;97.61;100313.69;5055536;28;20615;-76
2023/12/24 03:53:54;;;;;;;3.60;2.67;;;;;;;9.06;97.76;100309.28;5053943;28;20199;-76
2023/12/24 03:56:21;;;;;;;4.50;4.10;;;;;;;9.08;97.60;100309.13;5053929;28;20175;-76
2023/12/24 03:58:47;;;;;;;3.50;3.40;;;;;;;9.04;97.85;100315.72;5054938;28;20203;-76
2023/12/24 04:01:14;;;;;;;3.27;3.27;;;;;;;9.05;98.11;100315.59;5053833;28;20234;-76
2023/12/24 04:03:41;;;;;;;2.77;2.70;;;;;;;9.11;98.15;100309.66;5053766;28;20209;-76
2023/12/24 04:06:16;;;;;;;3.33;3.23;;;;;;;9.13;98.03;100309.47;5053697;28;20298;-76
2023/12/24 04:08:42;;;;;;;4.10;4.00;;;;;;;9.14;98.25;100293.34;5055141;28;20168;-76
2023/12/24 04:11:13;;;;;;;3.10;3.03;;;;;;;9.12;98.44;100303.31;5052982;28;20191;-76
2023/12/24 04:13:40;;;;;;;2.90;2.90;;;;;;;9.15;98.58;100299.50;5053589;28;20184;-76
2023/12/24 04:16:07;;;;;;;3.47;3.37;;;;;;;9.20;99.03;100294.56;5053514;28;20199;-76
2023/12/24 04:18:34;;;;;;;3.27;3.07;;;;;;;9.23;98.56;100282.75;5053259;28;20226;-76
2023/12/24 04:21:01;;;;;;;2.70;2.70;;;;;;;9.24;99.11;100287.94;5054824;28;20203;-76
2023/12/24 04:23:28;;;;;;;2.50;2.50;;;;;;;9.18;99.07;100284.03;5053359;28;20197;-76
2023/12/24 04:25:55;;;;;;;3.13;2.90;;;;;;;9.22;99.49;100283.72;5054569;28;20195;-76
2023/12/24 04:28:22;;;;;;;2.20;2.20;;;;;;;9.30;99.44;100273.13;5053302;28;20195;-76
2023/12/24 04:30:49;;;;;;;3.10;2.93;;;;;;;9.32;99.21;100271.16;5054439;28;20273;-76
2023/12/24 04:33:16;;;;;;;3.27;3.17;;;;;;;9.34;99.19;100266.47;5054442;28;20274;-76
2023/12/24 04:35:44;;;;;;;3.80;2.30;;;;;;;9.33;99.50;100273.69;5054666;28;20237;-76
2023/12/24 04:38:11;;;;;;;3.57;2.70;;;;;;;9.33;99.32;100275.50;5053015;28;20210;-76
2023/12/24 04:40:38;;;;;;;3.03;2.70;;;;;;;9.30;99.45;100262.44;5054767;28;20233;-76
2023/12/24 04:43:04;;;;;;;2.80;2.80;;;;;;;9.31;99.52;100261.47;5054304;28;20190;-76
2023/12/24 04:45:31;;;;;;;2.10;2.10;;;;;;;9.34;99.41;100270.00;5054230;28;20621;-76
2023/12/24 04:47:59;;;;;;;2.20;2.10;;;;;;;9.37;99.58;100253.69;5054174;28;20194;-76
2023/12/24 04:50:26;;;;;;;2.30;2.30;;;;;;;9.36;99.54;100259.19;5052820;28;20214;-76
2023/12/24 04:52:53;;;;;;;1.93;1.93;;;;;;;9.32;99.62;100264.00;5052815;28;20195;-76
2023/12/24 04:55:20;;;;;;;2.10;2.10;;;;;;;9.36;99.37;100269.84;5054329;28;20183;-76
2023/12/24 04:57:46;;;;;;;2.63;2.53;;;;;;;9.35;99.84;100252.16;5052635;28;20199;-77
2023/12/24 05:00:13;;;;;;;2.10;2.10;;;;;;;9.37;99.92;100263.53;5052688;28;20215;-77
2023/12/24 05:02:40;;;;;;;2.00;2.00;;;;;;;9.36;99.76;100253.84;5052625;28;20191;-76
2023/12/24 05:05:06;;;;;;;2.67;1.90;;;;;;;9.33;100.00;100254.16;5052803;28;20206;-76
2023/12/24 05:07:33;;;;;;;3.03;2.93;;;;;;;9.38;100.00;100254.50;5053806;28;20187;-76
2023/12/24 05:10:01;;;;;;;2.53;2.43;;;;;;;9.37;100.00;100248.38;5052419;28;20207;-76
2023/12/24 05:12:28;;;;;;;2.20;2.20;;;;;;;9.38;99.82;100242.00;5052454;28;20195;-76
2023/12/24 05:14:54;;;;;;;2.17;2.13;;;;;;;9.39;99.93;100249.03;5053936;28;20191;-76
2023/12/24 05:17:21;;;;;;;2.33;2.13;;;;;;;9.39;100.00;100253.53;5052311;28;20206;-76
2023/12/24 05:19:48;;;;;;;2.20;2.20;;;;;;;9.35;100.00;100246.81;5052185;28;20635;-76
2023/12/24 05:22:14;;;;;;;2.27;2.17;;;;;;;9.44;100.00;100254.75;5052418;28;20191;-76
2023/12/24 05:24:41;;;;;;;2.13;2.13;;;;;;;9.40;99.92;100247.19;5052259;28;20569;-76
2023/12/24 05:27:07;;;;;;;2.43;2.37;;;;;;;9.42;99.79;100239.91;5053441;28;20188;-77
2023/12/24 05:29:34;;;;;;;1.83;1.83;;;;;;;9.41;99.79;100233.72;5053378;28;20282;-76
2023/12/24 05:32:01;;;;;;;1.83;1.83;;;;;;;9.43;100.00;100228.22;5053627;28;20187;-76
2023/12/24 05:34:28;;;;;;;3.23;2.07;;;;;;;9.48;99.60;100233.91;5053328;28;20278;-77
2023/12/24 05:36:54;;;;;;;2.03;2.03;;;;;;;9.36;99.66;100217.34;5053301;28;20198;-77
2023/12/24 05:39:21;;;;;;;3.70;1.90;;;;;;;9.40;99.85;100220.53;5053149;28;20211;-76
2023/12/24 05:41:47;;;;;;;1.97;1.97;;;;;;;9.45;99.85;100202.22;5053254;28;20195;-76
2023/12/24 05:44:14;;;;;;;1.93;1.80;;;;;;;9.44;100.00;100217.38;5053237;28;20191;-77
2023/12/24 05:46:40;;;;;;;2.40;2.30;;;;;;;9.41;99.80;100216.88;5053188;28;20187;-76
2023/12/24 05:49:07;;;;;;;1.67;1.57;;;;;;;9.46;99.73;100225.25;5053089;28;20199;-76
2023/12/24 05:51:34;;;;;;;1.17;1.17;;;;;;;9.44;99.99;100219.22;5053140;28;20193;-76
2023/12/24 05:54:00;;;;;;;1.40;1.40;;;;;;;9.43;99.85;100214.88;5053152;28;20187;-77
2023/12/24 05:56:27;;;;;;;2.40;2.07;;;;;;;9.39;100.00;100213.50;5053347;28;20194;-76
2023/12/24 05:58:53;;;;;;;1.90;1.90;;;;;;;9.39;99.92;100230.34;5053131;28;20630;-76
2023/12/24 06:01:20;;;;;;;2.20;2.00;;;;;;;9.44;99.89;100225.38;5053034;28;20556;-76
2023/12/24 06:03:46;;;;;;;2.43;1.53;;;;;;;9.41;100.00;100215.03;5053011;28;20607;-76
2023/12/24 06:06:13;;;;;;;2.13;2.13;;;;;;;9.43;100.00;100213.03;5052968;28;20214;-76
2023/12/24 06:08:39;;;;;;;1.80;1.80;;;;;;;9.47;100.00;100221.56;5052879;28;20183;-76
2023/12/24 06:11:06;;;;;;;1.80;1.80;;;;;;;9.43;100.00;100223.72;5053532;28;20619;-77
2023/12/24 06:13:32;;;;;;;2.00;1.87;;;;;;;9.44;100.00;100216.53;5053150;28;20686;-76
2023/12/24 06:15:59;;;;;;;1.40;1.40;;;;;;;9.44;100.00;100227.22;5053485;28;20257;-76
2023/12/24 06:18:25;;;;;;;1.53;1.43;;;;;;;9.46;100.00;100223.38;5052720;28;20687;-76
2023/12/24 06:20:52;;;;;;;1.60;1.60;;;;;;;9.45;100.00;100223.56;5052873;28;20609;-76
2023/12/24 06:23:18;;;;;;;1.37;1.37;;;;;;;9.46;100.00;100227.91;5052842;28;20187;-76
2023/12/24 06:25:45;;;;;;;1.20;1.20;;;;;;;9.44;100.00;100222.72;5052835;28;20194;-76
2023/12/24 06:28:11;;;;;;;1.50;1.50;;;;;;;9.41;100.00;100212.38;5052811;28;20187;-76
2023/12/24 06:30:38;;;;;;;1.67;1.67;;;;;;;9.47;100.00;100218.88;5052983;28;20571;-76
2023/12/24 06:33:04;;;;;;;2.97;1.40;;;;;;;9.46;100.00;100199.38;5053895;28;20191;-76
2023/12/24 06:35:31;;;;;;;1.60;1.60;;;;;;;9.49;100.00;100214.25;5056725;28;20662;-76
2023/12/24 06:37:57;;;;;;;2.00;1.90;;;;;;;9.48;100.00;100218.75;5057388;28;20639;-76
2023/12/24 06:40:24;;;;;;;1.70;1.70;;;;;;;9.48;100.00;100205.41;5056629;28;20219;-76
2023/12/24 06:42:50;;;;;;;3.00;1.47;;;;;;;9.51;100.00;100209.56;5056762;28;20191;-76
2023/12/24 06:45:18;;;;;;;1.30;1.30;;;;;;;9.51;100.00;100207.75;5055269;28;20252;-76
2023/12/24 06:47:44;;;;;;;1.43;1.43;;;;;;;9.48;100.00;100220.56;5056466;28;20187;-76
2023/12/24 06:50:11;;;;;;;2.17;2.17;;;;;;;9.45;100.00;100223.56;5056382;28;20199;-76
2023/12/24 06:52:37;;;;;;;2.07;1.87;;;;;;;9.48;100.00;100223.25;5056658;28;20589;-75
2023/12/24 06:55:04;;;;;;;7.30;2.00;;;;;;;9.54;100.00;100209.28;5056832;28;20241;-75
2023/12/24 06:57:31;;;;;;;1.43;1.43;;;;;;;9.53;99.98;100207.59;5056829;28;20245;-74
2023/12/24 06:59:57;;;;;;;2.07;2.07;;;;;;;9.52;100.00;100201.44;5054803;28;20691;-73
2023/12/24 07:02:23;;;;;;;2.03;2.03;;;;;;;9.50;100.00;100199.94;5056732;28;20195;-73
2023/12/24 07:04:50;;;;;;;1.70;1.70;;;;;;;9.50;100.00;100210.59;5056399;28;20226;-73
2023/12/24 07:07:16;;;;;;;2.27;2.10;;;;;;;9.55;100.00;100209.09;5056105;28;20611;-73
2023/12/24 07:09:43;;;;;;;2.10;2.00;;;;;;;9.60;100.00;100203.28;5055977;28;20238;-73
2023/12/24 07:12:09;;;;;;;2.73;2.73;;;;;;;9.61;100.00;100199.63;5056548;28;20183;-73
2023/12/24 07:14:36;;;;;;;2.33;2.33;;;;;;;9.64;100.00;100200.16;5055953;28;20659;-73
2023/12/24 07:17:02;;;;;;;2.40;2.40;;;;;;;9.61;100.00;100204.97;5056195;28;20673;-73
2023/12/24 07:19:29;;;;;;;2.13;2.13;;;;;;;9.58;100.00;100214.16;5055697;28;20215;-73
2023/12/24 07:21:56;;;;;;;1.70;1.70;;;;;;;9.53;100.00;100197.78;5056399;28;20262;-73
2023/12/24 07:24:22;;;;;;;1.87;1.87;;;;;;;9.58;100.00;100199.97;5055741;28;20187;-73
2023/12/24 07:26:49;;;;;;;1.73;1.73;;;;;;;9.59;100.00;100209.63;5055711;28;20659;-73
2023/12/24 07:29:15;;;;;;;1.87;1.87;;;;;;;9.58;100.00;100202.63;5055667;28;20218;-73
2023/12/24 07:31:42;;;;;;;2.10;2.10;;;;;;;9.57;100.00;100206.28;5055644;28;20266;-73
2023/12/24 07:34:08;;;;;;;3.03;1.90;;;;;;;9.60;100.00;100205.97;5056092;28;20189;-73
2023/12/24 07:36:35;;;;;;;3.00;2.80;;;;;;;9.60;100.00;100212.16;5055565;28;20190;-73
2023/12/24 07:39:03;;;;;;;1.40;1.40;;;;;;;9.57;100.00;100206.28;5055391;28;20211;-73
2023/12/24 07:41:31;;;;;;;2.17;2.17;;;;;;;9.58;100.00;100207.97;5055476;28;20202;-73
2023/12/24 07:44:03;;;;;;;2.00;1.77;;;;;;;9.62;100.00;100202.16;5053586;28;20211;-73
2023/12/24 07:46:30;;;;;;;2.87;2.87;;;;;;;9.66;100.00;100205.34;5054735;28;20619;-73
2023/12/24 07:48:57;;;;;;;1.97;1.97;;;;;;;9.69;100.00;100196.19;5055762;28;20183;-73
2023/12/24 07:51:23;;;;;;;2.20;2.20;;;;;;;9.61;100.00;100210.31;5055489;28;20717;-73
2023/12/24 07:53:50;;;;;;;2.70;2.70;;;;;;;9.68;100.00;100205.16;5055480;28;20191;-73
2023/12/24 07:56:17;;;;;;;2.47;2.37;;;;;;;9.67;100.00;100212.38;5053910;28;20612;-73
2023/12/24 07:58:43;;;;;;;6.13;2.00;;;;;;;9.66;100.00;100200.00;5054958;28;20207;-73
2023/12/24 08:01:09;;;;;;;3.10;3.00;;;;;;;9.66;100.00;100201.84;5055099;28;20192;-73
2023/12/24 08:03:36;;;;;;;2.00;2.00;;;;;;;9.69;100.00;100196.19;5055606;28;20171;-73
2023/12/24 08:06:03;;;;;;;2.10;2.00;;;;;;;9.70;100.00;100197.84;5054962;28;20193;-73
2023/12/24 08:08:29;;;;;;;2.10;2.10;;;;;;;9.72;100.00;100187.88;5054976;28;20194;-73
2023/12/24 08:10:56;;;;;;;2.00;2.00;;;;;;;9.69;100.00;100185.50;5055116;28;20300;-73
2023/12/24 08:13:29;;;;;;;2.50;2.50;;;;;;;9.73;100.00;100189.53;5055122;28;20624;-73
2023/12/24 08:15:55;;;;;;;2.33;2.33;;;;;;;9.81;100.00;100187.72;5054807;28;20233;-73
2023/12/24 08:18:22;;;;;;;4.47;1.73;;;;;;;9.76;100.00;100179.34;5054684;28;20729;-73
2023/12/24 08:20:49;;;;;;;2.37;2.37;;;;;;;9.75;100.00;100188.38;5054585;28;20262;-73
2023/12/24 08:23:16;;;;;;;2.30;2.20;;;;;;;9.76;100.00;100183.88;5054682;28;20187;-73
2023/12/24 08:25:42;;;;;;;1.80;1.80;;;;;;;9.76;100.00;100200.72;5054966;28;20202;-73
2023/12/24 08:28:09;;;;;;;2.17;2.17;;;;;;;9.82;100.00;100194.75;5054874;28;20163;-74
2023/12/24 08:30:35;;;;;;;1.80;1.70;;;;;;;9.84;100.00;100192.78;5054553;28;20573;-74
2023/12/24 08:33:02;;;;;;;2.07;2.07;;;;;;;9.81;100.00;100187.72;5054752;28;20175;-73
2023/12/24 08:35:29;;;;;;;1.87;1.87;;;;;;;9.76;100.00;100190.03;5054473;28;20199;-73
2023/12/24 08:37:56;;;;;;;2.90;2.63;;;;;;;9.78;100.00;100189.88;5054966;28;20186;-73
2023/12/24 08:40:23;;;;;;;2.13;1.97;;;;;;;9.81;100.00;100192.22;5054394;28;20214;-73
2023/12/24 08:42:50;;;;;;;2.13;1.90;;;;;;;9.85;100.00;100191.75;5054279;28;20183;-74
2023/12/24 08:45:17;;;;;;;1.67;1.57;;;;;;;9.88;100.00;100188.78;5054622;28;20167;-74
2023/12/24 08:47:44;;;;;;;1.93;1.83;;;;;;;9.87;100.00;100178.25;5054459;28;20575;-73
2023/12/24 08:50:11;;;;;;;1.67;1.67;;;;;;;9.86;100.00;100182.75;5054071;28;20203;-73
2023/12/24 08:52:37;;;;;;;2.33;2.23;;;;;;;9.86;100.00;100195.25;5054674;28;20175;-76
2023/12/24 08:55:06;;;;;;;3.37;2.50;;;;;;;9.84;100.00;100194.59;5054081;28;20187;-76
2023/12/24 08:57:32;;;;;;;2.00;2.00;;;;;;;9.84;100.00;100187.44;5053884;28;20665;-76
2023/12/24 08:59:58;;;;;;;2.30;2.30;;;;;;;9.83;100.00;100185.75;5054086;28;20219;-76
2023/12/24 09:02:25;;;;;;;1.53;1.43;;;;;;;9.90;100.00;100188.59;5054514;28;20225;-76
2023/12/24 09:04:51;;;;;;;2.10;2.00;;;;;;;9.95;99.95;100180.94;5054395;28;20183;-76
2023/12/24 09:07:19;;;;;;;2.10;2.10;;;;;;;9.94;99.71;100182.78;5053759;28;20233;-76
2023/12/24 09:09:45;;;;;;;11.80;3.10;;;;;;;9.96;99.74;100183.47;5053754;28;20617;-76
2023/12/24 09:12:11;;;;;;;2.10;2.10;;;;;;;9.94;99.68;100187.28;5053734;28;20244;-76
2023/12/24 09:14:38;;;;;;;2.47;2.47;;;;;;;9.97;99.33;100185.13;5053698;28;20194;-76
2023/12/24 09:17:04;;;;;;;2.00;2.00;;;;;;;9.97;98.93;100181.66;5053948;28;20702;-76
2023/12/24 09:19:31;;;;;;;2.40;2.40;;;;;;;9.97;99.28;100185.13;5053434;28;20210;-75
2023/12/24 09:21:57;;;;;;;2.57;2.53;;;;;;;9.97;99.41;100189.66;5054075;28;20210;-75
2023/12/24 09:24:24;;;;;;;1.60;1.60;;;;;;;9.99;99.26;100184.97;5053571;28;20678;-75
2023/12/24 09:26:50;;;;;;;1.77;1.67;;;;;;;10.00;99.23;100183.97;5053734;28;20184;-75
2023/12/24 09:29:21;;;;;;;2.63;2.50;;;;;;;10.03;98.99;100192.50;5053393;28;20457;-76
2023/12/24 09:31:48;;;;;;;1.70;1.70;;;;;;;9.95;99.27;100189.81;5053447;28;20663;-75
2023/12/24 09:34:14;;;;;;;2.20;2.20;;;;;;;10.03;99.25;100189.84;5053931;28;20576;-75
2023/12/24 09:36:41;;;;;;;1.90;1.90;;;;;;;9.99;99.16;100190.31;5053330;28;20194;-75
2023/12/24 09:39:07;;;;;;;1.97;1.97;;;;;;;10.00;99.05;100190.16;5053382;28;20211;-76
2023/12/24 09:41:34;;;;;;;2.13;2.07;;;;;;;10.02;99.24;100203.34;5053777;28;20195;-76
2023/12/24 09:44:01;;;;;;;2.07;2.07;;;;;;;10.10;98.95;100192.69;5053527;28;20543;-76
2023/12/24 09:46:27;;;;;;;2.37;2.37;;;;;;;10.04;98.73;100204.03;5053187;28;20207;-75
2023/12/24 09:48:54;;;;;;;2.40;2.40;;;;;;;10.07;98.87;100193.84;5053416;28;20547;-75
2023/12/24 09:51:22;;;;;;;2.27;2.27;;;;;;;10.01;98.85;100191.81;5053150;28;20194;-76
2023/12/24 09:53:49;;;;;;;2.30;2.30;;;;;;;10.02;99.01;100206.00;5053371;28;20191;-76
2023/12/24 09:56:15;;;;;;;4.73;1.70;;;;;;;10.03;99.12;100202.34;5053117;28;20278;-75
2023/12/24 09:58:43;;;;;;;1.80;1.80;;;;;;;10.05;99.06;100208.38;5053292;28;20179;-76
2023/12/24 10:01:10;;;;;;;2.10;2.10;;;;;;;10.00;99.61;100205.34;5053188;28;20792;-75
2023/12/24 10:03:37;;;;;;;2.20;2.20;;;;;;;10.03;99.62;100202.34;5053051;28;20644;-75
2023/12/24 10:06:07;;;;;;;1.80;1.50;;;;;;;10.06;99.91;100202.00;5053043;28;20198;-75
2023/12/24 10:08:35;;;;;;;2.17;2.17;;;;;;;10.10;99.81;100195.34;5055385;28;20172;-76
2023/12/24 10:11:16;;;;;;;1.73;1.70;;;;;;;10.10;99.97;100184.66;5057090;28;20207;-76
2023/12/24 10:13:44;;;;;;;1.87;1.87;;;;;;;10.08;99.79;100168.81;5057389;28;20241;-76
2023/12/24 10:16:10;;;;;;;1.63;1.47;;;;;;;10.09;99.89;100175.84;5057320;28;20195;-76
2023/12/24 10:18:49;;;;;;;1.83;1.80;;;;;;;10.17;99.95;100180.41;5057140;28;20199;-76
2023/12/24 10:21:17;;;;;;;1.87;1.87;;;;;;;10.14;99.97;100166.50;5057510;28;20281;-76
2023/12/24 10:23:43;;;;;;;3.23;1.97;;;;;;;10.13;99.86;100170.16;5057203;28;20187;-76
2023/12/24 10:26:11;;;;;;;2.13;2.10;;;;;;;10.14;99.91;100161.16;5057361;28;20538;-76
2023/12/24 10:28:51;;;;;;;1.97;1.97;;;;;;;10.21;99.75;100165.72;5055617;28;20191;-76
2023/12/24 10:31:27;;;;;;;1.67;1.67;;;;;;;10.22;99.62;100154.03;5057104;28;20167;-75
2023/12/24 10:33:58;;;;;;;1.60;1.60;;;;;;;10.22;99.38;100147.88;5056861;28;20187;-76
2023/12/24 10:36:25;;;;;;;1.93;1.93;;;;;;;10.24;99.32;100157.38;5057256;28;20175;-76
2023/12/24 10:38:52;;;;;;;2.17;2.07;;;;;;;10.29;99.13;100159.56;5056557;28;20199;-75
2023/12/24 10:41:18;;;;;;;2.00;2.00;;;;;;;10.31;99.30;100152.22;5056784;28;20214;-75
2023/12/24 10:43:45;;;;;;;2.80;2.70;;;;;;;10.39;98.96;100146.91;5056571;28;20278;-76
2023/12/24 10:46:11;;;;;;;3.40;3.10;;;;;;;10.44;98.59;100137.38;5056748;28;20187;-76
2023/12/24 10:48:38;;;;;;;2.63;2.53;;;;;;;10.46;98.47;100135.38;5056726;28;20801;-76
2023/12/24 10:51:04;;;;;;;7.90;2.57;;;;;;;10.45;97.94;100127.50;5056389;28;20238;-75
2023/12/24 10:53:31;;;;;;;2.70;2.50;;;;;;;10.51;98.08;100126.88;5056913;28;20190;-76
2023/12/24 10:56:08;;;;;;;5.53;3.07;;;;;;;10.59;97.71;100126.03;5056267;28;20195;-76
2023/12/24 10:58:50;;;;;;;2.53;2.43;;;;;;;10.59;97.06;100124.19;5056858;28;20250;-75
2023/12/24 11:01:17;;;;;;;2.87;2.80;;;;;;;10.60;97.57;100130.38;5056469;28;20202;-75
2023/12/24 11:03:47;;;;;;;3.13;2.70;;;;;;;10.64;97.11;100140.56;5056457;28;20187;-76
2023/12/24 11:06:36;;;;;;;3.77;3.77;;;;;;;10.61;97.14;100143.56;5056417;28;20179;-76
2023/12/24 11:09:14;;;;;;;2.33;2.33;;;;;;;10.59;97.17;100153.59;5056010;28;20199;-76
2023/12/24 11:11:51;;;;;;;2.10;2.10;;;;;;;10.59;97.66;100161.63;5056547;28;20187;-76
2023/12/24 11:14:36;;;;;;;2.60;2.60;;;;;;;10.57;97.60;100152.91;5056009;28;20254;-76
2023/12/24 11:17:05;;;;;;;2.53;2.53;;;;;;;10.59;98.04;100160.78;5056030;28;20195;-76
2023/12/24 11:19:35;;;;;;;2.43;2.33;;;;;;;10.60;97.80;100155.28;5055857;28;20737;-76
2023/12/24 11:22:09;;;;;;;1.57;1.50;;;;;;;10.60;98.12;100152.59;5056114;28;20188;-76
2023/12/24 11:24:43;;;;;;;1.97;1.73;;;;;;;10.60;98.04;100146.41;5056053;28;20179;-76
2023/12/24 11:27:12;;;;;;;1.97;1.87;;;;;;;10.56;97.85;100137.06;5056052;28;20176;-76
2023/12/24 11:29:46;;;;;;;2.40;2.20;;;;;;;10.63;98.04;100136.22;5055764;28;20577;-76